sensor_id;sensor_type;location;lat;lon;timestamp;pressure;altitude;pressure_sealevel;temperature;humidity
61361;BME280;47232;47.506;18.936;2022-10-17T00:00:43;99566.70;;;13.70;59.03
61361;BME280;47232;47.506;18.936;2022-10-17T00:03:09;99567.00;;;13.71;59.27
61361;BME280;47232;47.506;18.936;2022-10-17T00:05:39;99566.39;;;13.72;59.38
61361;BME280;47232;47.506;18.936;2022-10-17T00:08:05;99564.77;;;13.74;59.18
61361;BME280;47232;47.506;18.936;2022-10-17T00:10:31;99565.79;;;13.75;59.36
61361;BME280;47232;47.506;18.936;2022-10-17T00:12:56;99568.61;;;13.75;59.16
61361;BME280;47232;47.506;18.936;2022-10-17T00:15:21;99567.53;;;13.74;58.94
61361;BME280;47232;47.506;18.936;2022-10-17T00:17:47;99566.46;;;13.74;59.05
61361;BME280;47232;47.506;18.936;2022-10-17T00:20:13;99568.88;;;13.72;58.85
61361;BME280;47232;47.506;18.936;2022-10-17T00:22:39;99567.99;;;13.70;58.92
61361;BME280;47232;47.506;18.936;2022-10-17T00:25:05;99569.59;;;13.69;58.97
61361;BME280;47232;47.506;18.936;2022-10-17T00:27:34;99571.27;;;13.67;59.06
61361;BME280;47232;47.506;18.936;2022-10-17T00:30:00;99566.98;;;13.64;58.97
61361;BME280;47232;47.506;18.936;2022-10-17T00:32:25;99563.84;;;13.61;59.12
61361;BME280;47232;47.506;18.936;2022-10-17T00:34:51;99567.77;;;13.59;59.17
61361;BME280;47232;47.506;18.936;2022-10-17T00:37:16;99568.33;;;13.56;59.27
61361;BME280;47232;47.506;18.936;2022-10-17T00:39:41;99567.13;;;13.53;59.31
61361;BME280;47232;47.506;18.936;2022-10-17T00:42:11;99570.93;;;13.49;59.31
61361;BME280;47232;47.506;18.936;2022-10-17T00:47:10;99571.23;;;13.41;59.59
61361;BME280;47232;47.506;18.936;2022-10-17T00:49:38;99570.55;;;13.37;59.69
61361;BME280;47232;47.506;18.936;2022-10-17T00:52:08;99570.80;;;13.33;59.68
61361;BME280;47232;47.506;18.936;2022-10-17T00:54:39;99567.81;;;13.30;59.75
61361;BME280;47232;47.506;18.936;2022-10-17T00:57:05;99565.45;;;13.26;59.92
61361;BME280;47232;47.506;18.936;2022-10-17T00:59:37;99563.54;;;13.24;59.94
61361;BME280;47232;47.506;18.936;2022-10-17T01:02:12;99563.50;;;13.23;60.07
61361;BME280;47232;47.506;18.936;2022-10-17T01:04:41;99561.11;;;13.23;60.07
61361;BME280;47232;47.506;18.936;2022-10-17T01:07:07;99564.65;;;13.25;60.36
61361;BME280;47232;47.506;18.936;2022-10-17T01:09:33;99562.83;;;13.28;60.26
61361;BME280;47232;47.506;18.936;2022-10-17T01:12:06;99563.02;;;13.30;60.27
61361;BME280;47232;47.506;18.936;2022-10-17T01:26:01;99562.27;;;13.28;60.19
61361;BME280;47232;47.506;18.936;2022-10-17T01:31:21;99559.35;;;13.21;60.04
61361;BME280;47232;47.506;18.936;2022-10-17T01:36:51;99558.15;;;13.18;60.00
61361;BME280;47232;47.506;18.936;2022-10-17T01:47:13;99565.25;;;13.11;59.88
61361;BME280;47232;47.506;18.936;2022-10-17T01:49:40;99563.83;;;13.09;60.09
61361;BME280;47232;47.506;18.936;2022-10-17T01:52:19;99562.70;;;13.05;60.21
61361;BME280;47232;47.506;18.936;2022-10-17T01:57:27;99564.84;;;12.96;60.17
61361;BME280;47232;47.506;18.936;2022-10-17T01:59:54;99566.46;;;12.93;60.24
61361;BME280;47232;47.506;18.936;2022-10-17T02:02:22;99569.56;;;12.89;60.42
61361;BME280;47232;47.506;18.936;2022-10-17T02:04:50;99568.29;;;12.87;60.33
61361;BME280;47232;47.506;18.936;2022-10-17T02:07:16;99569.02;;;12.86;60.39
61361;BME280;47232;47.506;18.936;2022-10-17T02:09:42;99573.31;;;12.87;60.50
61361;BME280;47232;47.506;18.936;2022-10-17T02:20:28;99571.44;;;12.93;60.65
61361;BME280;47232;47.506;18.936;2022-10-17T02:22:57;99566.69;;;12.93;60.54
61361;BME280;47232;47.506;18.936;2022-10-17T02:30:41;99568.44;;;12.95;59.90
61361;BME280;47232;47.506;18.936;2022-10-17T02:33:26;99569.78;;;12.95;60.07
61361;BME280;47232;47.506;18.936;2022-10-17T02:35:53;99577.10;;;12.94;60.16
61361;BME280;47232;47.506;18.936;2022-10-17T02:38:23;99580.98;;;12.91;60.21
61361;BME280;47232;47.506;18.936;2022-10-17T02:40:50;99580.27;;;12.89;60.07
61361;BME280;47232;47.506;18.936;2022-10-17T02:43:17;99581.77;;;12.85;60.25
61361;BME280;47232;47.506;18.936;2022-10-17T02:45:44;99578.22;;;12.81;60.24
61361;BME280;47232;47.506;18.936;2022-10-17T02:48:20;99582.29;;;12.77;60.31
61361;BME280;47232;47.506;18.936;2022-10-17T02:50:56;99583.11;;;12.73;60.35
61361;BME280;47232;47.506;18.936;2022-10-17T02:53:42;99584.20;;;12.69;60.38
61361;BME280;47232;47.506;18.936;2022-10-17T02:56:17;99583.49;;;12.65;60.46
61361;BME280;47232;47.506;18.936;2022-10-17T02:58:45;99586.30;;;12.62;60.45
61361;BME280;47232;47.506;18.936;2022-10-17T03:01:14;99581.59;;;12.58;60.43
61361;BME280;47232;47.506;18.936;2022-10-17T03:03:39;99587.32;;;12.55;60.60
61361;BME280;47232;47.506;18.936;2022-10-17T03:06:05;99586.45;;;12.50;60.74
61361;BME280;47232;47.506;18.936;2022-10-17T03:08:30;99584.38;;;12.48;60.71
61361;BME280;47232;47.506;18.936;2022-10-17T03:10:56;99584.70;;;12.48;60.74
61361;BME280;47232;47.506;18.936;2022-10-17T03:13:21;99586.30;;;12.49;60.82
61361;BME280;47232;47.506;18.936;2022-10-17T03:15:46;99588.46;;;12.50;60.88
61361;BME280;47232;47.506;18.936;2022-10-17T03:18:12;99592.54;;;12.53;60.93
61361;BME280;47232;47.506;18.936;2022-10-17T03:20:37;99593.55;;;12.54;60.72
61361;BME280;47232;47.506;18.936;2022-10-17T03:23:03;99599.32;;;12.55;60.90
61361;BME280;47232;47.506;18.936;2022-10-17T03:25:28;99596.61;;;12.55;60.76
61361;BME280;47232;47.506;18.936;2022-10-17T03:27:54;99600.23;;;12.55;60.55
61361;BME280;47232;47.506;18.936;2022-10-17T03:30:21;99599.65;;;12.54;60.55
61361;BME280;47232;47.506;18.936;2022-10-17T03:32:47;99606.68;;;12.53;60.55
61361;BME280;47232;47.506;18.936;2022-10-17T03:35:12;99608.22;;;12.52;60.43
61361;BME280;47232;47.506;18.936;2022-10-17T03:37:37;99616.98;;;12.50;60.44
61361;BME280;47232;47.506;18.936;2022-10-17T03:40:03;99621.61;;;12.47;60.41
61361;BME280;47232;47.506;18.936;2022-10-17T03:42:30;99618.96;;;12.44;60.52
61361;BME280;47232;47.506;18.936;2022-10-17T03:44:56;99623.55;;;12.41;60.49
61361;BME280;47232;47.506;18.936;2022-10-17T03:47:21;99622.13;;;12.38;60.58
61361;BME280;47232;47.506;18.936;2022-10-17T03:49:47;99623.74;;;12.35;60.65
61361;BME280;47232;47.506;18.936;2022-10-17T03:52:13;99627.17;;;12.32;60.75
61361;BME280;47232;47.506;18.936;2022-10-17T03:54:38;99629.39;;;12.27;60.76
61361;BME280;47232;47.506;18.936;2022-10-17T03:57:04;99630.14;;;12.23;60.79
61361;BME280;47232;47.506;18.936;2022-10-17T03:59:29;99632.30;;;12.19;60.88
61361;BME280;47232;47.506;18.936;2022-10-17T04:01:55;99631.09;;;12.16;60.94
61361;BME280;47232;47.506;18.936;2022-10-17T04:04:20;99630.97;;;12.13;60.95
61361;BME280;47232;47.506;18.936;2022-10-17T04:06:46;99630.14;;;12.11;61.17
61361;BME280;47232;47.506;18.936;2022-10-17T04:09:11;99632.69;;;12.10;61.37
61361;BME280;47232;47.506;18.936;2022-10-17T04:11:37;99634.58;;;12.10;61.53
61361;BME280;47232;47.506;18.936;2022-10-17T04:14:02;99637.59;;;12.10;61.60
61361;BME280;47232;47.506;18.936;2022-10-17T04:16:28;99637.80;;;12.11;61.53
61361;BME280;47232;47.506;18.936;2022-10-17T04:18:55;99641.85;;;12.14;61.54
61361;BME280;47232;47.506;18.936;2022-10-17T04:21:22;99644.02;;;12.16;61.33
61361;BME280;47232;47.506;18.936;2022-10-17T04:23:56;99646.73;;;12.17;61.32
61361;BME280;47232;47.506;18.936;2022-10-17T04:26:22;99645.28;;;12.18;61.18
61361;BME280;47232;47.506;18.936;2022-10-17T04:28:47;99645.66;;;12.17;61.23
61361;BME280;47232;47.506;18.936;2022-10-17T04:31:13;99645.61;;;12.17;61.14
61361;BME280;47232;47.506;18.936;2022-10-17T04:33:39;99646.17;;;12.15;61.22
61361;BME280;47232;47.506;18.936;2022-10-17T04:36:09;99649.23;;;12.12;61.24
61361;BME280;47232;47.506;18.936;2022-10-17T04:38:35;99652.18;;;12.09;61.20
61361;BME280;47232;47.506;18.936;2022-10-17T04:41:03;99653.62;;;12.06;61.26
61361;BME280;47232;47.506;18.936;2022-10-17T04:43:34;99658.40;;;12.03;61.21
61361;BME280;47232;47.506;18.936;2022-10-17T04:46:02;99653.35;;;12.00;61.15
61361;BME280;47232;47.506;18.936;2022-10-17T04:48:28;99657.06;;;11.98;61.15
61361;BME280;47232;47.506;18.936;2022-10-17T04:51:00;99663.13;;;11.95;61.17
61361;BME280;47232;47.506;18.936;2022-10-17T04:53:27;99661.38;;;11.92;61.08
61361;BME280;47232;47.506;18.936;2022-10-17T04:55:53;99662.77;;;11.90;61.09
61361;BME280;47232;47.506;18.936;2022-10-17T04:58:19;99663.41;;;11.88;61.20
61361;BME280;47232;47.506;18.936;2022-10-17T05:00:45;99671.92;;;11.86;61.20
61361;BME280;47232;47.506;18.936;2022-10-17T05:03:11;99671.66;;;11.83;61.23
61361;BME280;47232;47.506;18.936;2022-10-17T05:05:38;99672.36;;;11.81;61.21
61361;BME280;47232;47.506;18.936;2022-10-17T05:08:04;99672.84;;;11.82;61.25
61361;BME280;47232;47.506;18.936;2022-10-17T05:10:35;99672.17;;;11.83;61.27
61361;BME280;47232;47.506;18.936;2022-10-17T05:13:01;99679.07;;;11.84;61.33
61361;BME280;47232;47.506;18.936;2022-10-17T05:15:26;99679.47;;;11.87;61.47
61361;BME280;47232;47.506;18.936;2022-10-17T05:17:55;99679.11;;;11.90;61.47
61361;BME280;47232;47.506;18.936;2022-10-17T05:20:21;99682.22;;;11.92;61.39
61361;BME280;47232;47.506;18.936;2022-10-17T05:22:47;99684.62;;;11.94;61.37
61361;BME280;47232;47.506;18.936;2022-10-17T05:25:12;99688.77;;;11.96;61.26
61361;BME280;47232;47.506;18.936;2022-10-17T05:27:38;99696.15;;;11.97;61.21
61361;BME280;47232;47.506;18.936;2022-10-17T05:30:04;99698.40;;;11.98;61.10
61361;BME280;47232;47.506;18.936;2022-10-17T05:32:30;99700.23;;;11.99;61.14
61361;BME280;47232;47.506;18.936;2022-10-17T05:34:55;99701.20;;;12.00;61.12
61361;BME280;47232;47.506;18.936;2022-10-17T05:37:21;99705.79;;;12.00;61.05
61361;BME280;47232;47.506;18.936;2022-10-17T05:39:46;99706.77;;;11.99;60.97
61361;BME280;47232;47.506;18.936;2022-10-17T05:42:12;99706.39;;;12.00;60.98
61361;BME280;47232;47.506;18.936;2022-10-17T05:44:37;99709.63;;;12.00;60.67
61361;BME280;47232;47.506;18.936;2022-10-17T05:47:04;99712.31;;;12.00;60.88
61361;BME280;47232;47.506;18.936;2022-10-17T05:49:29;99717.62;;;11.99;60.91
61361;BME280;47232;47.506;18.936;2022-10-17T05:51:55;99722.31;;;11.99;60.97
61361;BME280;47232;47.506;18.936;2022-10-17T05:54:20;99730.89;;;11.99;61.08
61361;BME280;47232;47.506;18.936;2022-10-17T05:56:50;99733.31;;;12.00;61.19
61361;BME280;47232;47.506;18.936;2022-10-17T05:59:16;99736.01;;;12.01;61.31
61361;BME280;47232;47.506;18.936;2022-10-17T06:01:41;99737.39;;;12.03;61.35
61361;BME280;47232;47.506;18.936;2022-10-17T06:04:07;99738.80;;;12.08;61.49
61361;BME280;47232;47.506;18.936;2022-10-17T06:06:35;99746.52;;;12.13;61.58
61361;BME280;47232;47.506;18.936;2022-10-17T06:09:01;99752.17;;;12.21;61.70
61361;BME280;47232;47.506;18.936;2022-10-17T06:11:26;99752.74;;;12.28;61.69
61361;BME280;47232;47.506;18.936;2022-10-17T06:13:51;99751.30;;;12.37;61.65
61361;BME280;47232;47.506;18.936;2022-10-17T06:16:18;99758.87;;;12.45;61.16
61361;BME280;47232;47.506;18.936;2022-10-17T06:18:43;99765.11;;;12.54;61.05
61361;BME280;47232;47.506;18.936;2022-10-17T06:21:10;99765.67;;;12.61;61.03
61361;BME280;47232;47.506;18.936;2022-10-17T06:23:36;99767.92;;;12.67;61.04
61361;BME280;47232;47.506;18.936;2022-10-17T06:26:04;99770.16;;;12.73;60.74
61361;BME280;47232;47.506;18.936;2022-10-17T06:28:30;99769.48;;;12.80;60.40
61361;BME280;47232;47.506;18.936;2022-10-17T06:30:55;99772.22;;;12.86;59.99
61361;BME280;47232;47.506;18.936;2022-10-17T06:33:21;99777.55;;;12.93;60.13
61361;BME280;47232;47.506;18.936;2022-10-17T06:35:54;99777.63;;;12.99;59.40
61361;BME280;47232;47.506;18.936;2022-10-17T06:38:20;99780.58;;;13.04;59.81
61361;BME280;47232;47.506;18.936;2022-10-17T06:40:46;99783.05;;;13.10;59.82
61361;BME280;47232;47.506;18.936;2022-10-17T06:43:20;99786.22;;;13.15;59.98
61361;BME280;47232;47.506;18.936;2022-10-17T06:45:45;99789.58;;;13.20;60.25
61361;BME280;47232;47.506;18.936;2022-10-17T06:48:12;99796.02;;;13.25;60.05
61361;BME280;47232;47.506;18.936;2022-10-17T06:50:37;99801.30;;;13.30;60.19
61361;BME280;47232;47.506;18.936;2022-10-17T06:53:03;99800.29;;;13.33;60.10
61361;BME280;47232;47.506;18.936;2022-10-17T06:55:30;99800.77;;;13.38;59.83
61361;BME280;47232;47.506;18.936;2022-10-17T06:57:55;99801.61;;;13.44;59.50
61361;BME280;47232;47.506;18.936;2022-10-17T07:00:21;99805.74;;;13.49;59.49
61361;BME280;47232;47.506;18.936;2022-10-17T07:02:48;99809.61;;;13.55;58.85
61361;BME280;47232;47.506;18.936;2022-10-17T07:05:20;99810.06;;;13.61;58.53
61361;BME280;47232;47.506;18.936;2022-10-17T07:07:45;99811.00;;;13.67;58.97
61361;BME280;47232;47.506;18.936;2022-10-17T07:10:11;99813.98;;;13.74;59.27
61361;BME280;47232;47.506;18.936;2022-10-17T07:12:36;99814.42;;;13.81;59.39
61361;BME280;47232;47.506;18.936;2022-10-17T07:15:03;99816.86;;;13.87;59.48
61361;BME280;47232;47.506;18.936;2022-10-17T07:17:30;99822.16;;;13.94;59.38
61361;BME280;47232;47.506;18.936;2022-10-17T07:19:55;99824.75;;;14.02;59.47
61361;BME280;47232;47.506;18.936;2022-10-17T07:22:21;99832.02;;;14.11;59.06
61361;BME280;47232;47.506;18.936;2022-10-17T07:24:46;99826.29;;;14.19;58.81
61361;BME280;47232;47.506;18.936;2022-10-17T07:27:13;99824.54;;;14.30;58.39
61361;BME280;47232;47.506;18.936;2022-10-17T07:29:39;99827.21;;;14.41;58.27
61361;BME280;47232;47.506;18.936;2022-10-17T07:32:04;99831.48;;;14.53;58.20
61361;BME280;47232;47.506;18.936;2022-10-17T07:34:36;99833.36;;;14.62;57.99
61361;BME280;47232;47.506;18.936;2022-10-17T07:37:02;99834.56;;;14.73;57.79
61361;BME280;47232;47.506;18.936;2022-10-17T07:39:27;99839.88;;;14.82;57.21
61361;BME280;47232;47.506;18.936;2022-10-17T07:41:53;99835.14;;;14.90;57.04
61361;BME280;47232;47.506;18.936;2022-10-17T07:44:18;99838.56;;;14.98;56.89
61361;BME280;47232;47.506;18.936;2022-10-17T07:46:44;99836.63;;;15.08;56.93
61361;BME280;47232;47.506;18.936;2022-10-17T07:49:09;99830.98;;;15.16;56.51
61361;BME280;47232;47.506;18.936;2022-10-17T07:51:35;99836.52;;;15.23;56.15
61361;BME280;47232;47.506;18.936;2022-10-17T07:54:00;99834.38;;;15.30;56.16
61361;BME280;47232;47.506;18.936;2022-10-17T07:56:26;99831.77;;;15.37;56.65
61361;BME280;47232;47.506;18.936;2022-10-17T07:58:54;99836.93;;;15.46;56.30
61361;BME280;47232;47.506;18.936;2022-10-17T08:01:19;99840.60;;;15.53;56.05
61361;BME280;47232;47.506;18.936;2022-10-17T08:03:46;99842.67;;;15.62;56.00
61361;BME280;47232;47.506;18.936;2022-10-17T08:06:13;99848.15;;;15.73;55.82
61361;BME280;47232;47.506;18.936;2022-10-17T08:08:40;99854.25;;;15.84;55.43
61361;BME280;47232;47.506;18.936;2022-10-17T08:11:09;99858.77;;;15.95;54.84
61361;BME280;47232;47.506;18.936;2022-10-17T08:13:36;99861.70;;;16.07;54.60
61361;BME280;47232;47.506;18.936;2022-10-17T08:16:05;99859.77;;;16.19;54.39
61361;BME280;47232;47.506;18.936;2022-10-17T08:18:32;99858.70;;;16.31;54.59
61361;BME280;47232;47.506;18.936;2022-10-17T08:21:04;99862.80;;;16.45;54.21
61361;BME280;47232;47.506;18.936;2022-10-17T08:23:33;99862.48;;;16.59;53.85
61361;BME280;47232;47.506;18.936;2022-10-17T08:26:00;99860.13;;;16.71;53.32
61361;BME280;47232;47.506;18.936;2022-10-17T08:28:26;99865.97;;;16.85;52.88
61361;BME280;47232;47.506;18.936;2022-10-17T08:30:51;99864.80;;;16.99;52.76
61361;BME280;47232;47.506;18.936;2022-10-17T08:33:17;99868.38;;;17.15;52.69
61361;BME280;47232;47.506;18.936;2022-10-17T08:35:42;99868.87;;;17.31;51.84
61361;BME280;47232;47.506;18.936;2022-10-17T08:38:07;99869.14;;;17.45;49.83
61361;BME280;47232;47.506;18.936;2022-10-17T08:40:33;99864.45;;;17.60;48.88
61361;BME280;47232;47.506;18.936;2022-10-17T08:43:48;99867.30;;;17.76;48.00
61361;BME280;47232;47.506;18.936;2022-10-17T08:46:05;99866.73;;;17.96;48.02
61361;BME280;47232;47.506;18.936;2022-10-17T08:48:37;99866.36;;;18.14;46.58
61361;BME280;47232;47.506;18.936;2022-10-17T08:51:17;99871.11;;;18.30;45.74
61361;BME280;47232;47.506;18.936;2022-10-17T08:54:13;99873.55;;;18.45;44.27
61361;BME280;47232;47.506;18.936;2022-10-17T08:56:45;99869.46;;;18.59;44.09
61361;BME280;47232;47.506;18.936;2022-10-17T08:59:17;99869.85;;;18.74;43.75
61361;BME280;47232;47.506;18.936;2022-10-17T09:07:24;99867.08;;;19.13;42.96
61361;BME280;47232;47.506;18.936;2022-10-17T09:09:54;99868.84;;;19.32;42.60
61361;BME280;47232;47.506;18.936;2022-10-17T09:18:12;99868.51;;;19.82;41.08
61361;BME280;47232;47.506;18.936;2022-10-17T09:21:20;99872.35;;;20.00;41.19
61361;BME280;47232;47.506;18.936;2022-10-17T09:24:01;99869.91;;;20.19;40.58
61361;BME280;47232;47.506;18.936;2022-10-17T09:26:28;99867.42;;;20.37;40.76
61361;BME280;47232;47.506;18.936;2022-10-17T09:28:58;99870.89;;;20.53;39.70
61361;BME280;47232;47.506;18.936;2022-10-17T09:31:29;99873.46;;;20.65;38.99
61361;BME280;47232;47.506;18.936;2022-10-17T09:34:00;99880.60;;;20.77;38.50
61361;BME280;47232;47.506;18.936;2022-10-17T09:36:33;99873.21;;;20.83;38.22
61361;BME280;47232;47.506;18.936;2022-10-17T09:39:01;99875.82;;;20.91;38.35
61361;BME280;47232;47.506;18.936;2022-10-17T09:41:38;99882.23;;;20.98;38.28
61361;BME280;47232;47.506;18.936;2022-10-17T09:44:32;99878.08;;;21.08;38.11
61361;BME280;47232;47.506;18.936;2022-10-17T09:47:28;99876.09;;;21.21;38.29
61361;BME280;47232;47.506;18.936;2022-10-17T09:49:55;99874.58;;;21.42;38.22
61361;BME280;47232;47.506;18.936;2022-10-17T09:52:24;99879.33;;;21.62;37.63
61361;BME280;47232;47.506;18.936;2022-10-17T09:55:04;99878.37;;;21.78;36.68
61361;BME280;47232;47.506;18.936;2022-10-17T09:58:00;99876.30;;;21.88;36.79
61361;BME280;47232;47.506;18.936;2022-10-17T10:03:23;99882.27;;;22.15;36.71
61361;BME280;47232;47.506;18.936;2022-10-17T10:08:36;99885.77;;;22.51;35.65
61361;BME280;47232;47.506;18.936;2022-10-17T10:11:05;99876.55;;;22.55;34.54
61361;BME280;47232;47.506;18.936;2022-10-17T10:13:33;99874.63;;;22.61;34.90
61361;BME280;47232;47.506;18.936;2022-10-17T10:16:34;99878.00;;;22.70;35.29
61361;BME280;47232;47.506;18.936;2022-10-17T10:19:47;99878.62;;;22.88;34.72
61361;BME280;47232;47.506;18.936;2022-10-17T10:22:15;99872.33;;;23.03;34.29
61361;BME280;47232;47.506;18.936;2022-10-17T10:24:41;99871.92;;;23.16;34.01
61361;BME280;47232;47.506;18.936;2022-10-17T10:27:12;99870.09;;;23.22;33.62
61361;BME280;47232;47.506;18.936;2022-10-17T10:29:51;99869.73;;;23.33;33.93
61361;BME280;47232;47.506;18.936;2022-10-17T10:35:05;99869.16;;;23.54;33.49
61361;BME280;47232;47.506;18.936;2022-10-17T10:37:38;99870.08;;;23.63;33.14
61361;BME280;47232;47.506;18.936;2022-10-17T10:40:15;99869.08;;;23.70;32.89
61361;BME280;47232;47.506;18.936;2022-10-17T10:42:46;99866.71;;;23.70;32.26
61361;BME280;47232;47.506;18.936;2022-10-17T10:45:21;99861.77;;;23.78;33.08
61361;BME280;47232;47.506;18.936;2022-10-17T10:47:50;99868.05;;;23.97;32.96
61361;BME280;47232;47.506;18.936;2022-10-17T10:55:46;99866.42;;;24.38;32.75
61361;BME280;47232;47.506;18.936;2022-10-17T11:06:44;99859.67;;;25.05;31.05
61361;BME280;47232;47.506;18.936;2022-10-17T11:09:33;99863.69;;;25.12;31.45
61361;BME280;47232;47.506;18.936;2022-10-17T11:12:13;99858.54;;;25.20;31.23
61361;BME280;47232;47.506;18.936;2022-10-17T11:14:46;99855.91;;;25.35;31.51
61361;BME280;47232;47.506;18.936;2022-10-17T11:17:44;99859.33;;;25.55;30.48
61361;BME280;47232;47.506;18.936;2022-10-17T11:23:24;99856.27;;;25.61;29.94
61361;BME280;47232;47.506;18.936;2022-10-17T11:25:53;99850.78;;;25.64;29.97
61361;BME280;47232;47.506;18.936;2022-10-17T11:28:22;99849.91;;;25.70;30.06
61361;BME280;47232;47.506;18.936;2022-10-17T11:33:36;99850.27;;;25.90;30.32
61361;BME280;47232;47.506;18.936;2022-10-17T11:36:07;99844.42;;;26.03;30.11
61361;BME280;47232;47.506;18.936;2022-10-17T11:41:00;99848.95;;;26.29;29.94
61361;BME280;47232;47.506;18.936;2022-10-17T11:43:57;99844.60;;;26.35;29.32
61361;BME280;47232;47.506;18.936;2022-10-17T11:46:27;99840.80;;;26.35;29.11
61361;BME280;47232;47.506;18.936;2022-10-17T11:49:12;99844.55;;;26.38;29.24
61361;BME280;47232;47.506;18.936;2022-10-17T11:54:50;99839.02;;;26.30;28.98
61361;BME280;47232;47.506;18.936;2022-10-17T12:05:22;99838.96;;;26.72;28.91
61361;BME280;47232;47.506;18.936;2022-10-17T12:10:52;99830.48;;;26.88;28.38
61361;BME280;47232;47.506;18.936;2022-10-17T12:18:46;99818.65;;;27.22;28.99
61361;BME280;47232;47.506;18.936;2022-10-17T12:21:12;99816.15;;;27.43;28.71
61361;BME280;47232;47.506;18.936;2022-10-17T12:23:38;99815.62;;;27.65;28.38
61361;BME280;47232;47.506;18.936;2022-10-17T12:26:07;99817.16;;;27.88;27.60
61361;BME280;47232;47.506;18.936;2022-10-17T12:31:23;99806.70;;;28.13;27.23
61361;BME280;47232;47.506;18.936;2022-10-17T12:33:58;99811.47;;;28.32;26.81
61361;BME280;47232;47.506;18.936;2022-10-17T12:49:45;99801.08;;;28.20;25.98
61361;BME280;47232;47.506;18.936;2022-10-17T12:55:16;99800.98;;;28.07;26.70
61361;BME280;47232;47.506;18.936;2022-10-17T12:58:21;99800.82;;;28.03;26.75
61361;BME280;47232;47.506;18.936;2022-10-17T13:03:20;99804.22;;;28.06;26.15
61361;BME280;47232;47.506;18.936;2022-10-17T13:05:52;99805.11;;;28.13;26.08
61361;BME280;47232;47.506;18.936;2022-10-17T13:08:24;99800.62;;;28.22;26.02
61361;BME280;47232;47.506;18.936;2022-10-17T13:10:53;99799.05;;;28.30;25.64
61361;BME280;47232;47.506;18.936;2022-10-17T13:13:24;99794.93;;;28.27;25.66
61361;BME280;47232;47.506;18.936;2022-10-17T13:15:52;99792.23;;;28.27;25.56
61361;BME280;47232;47.506;18.936;2022-10-17T13:18:27;99792.23;;;28.26;25.75
61361;BME280;47232;47.506;18.936;2022-10-17T13:21:04;99791.20;;;28.32;25.55
61361;BME280;47232;47.506;18.936;2022-10-17T13:23:36;99793.06;;;28.58;25.78
61361;BME280;47232;47.506;18.936;2022-10-17T13:26:25;99789.71;;;28.98;25.00
61361;BME280;47232;47.506;18.936;2022-10-17T13:29:05;99791.37;;;29.35;24.31
61361;BME280;47232;47.506;18.936;2022-10-17T13:31:36;99791.02;;;29.73;24.38
61361;BME280;47232;47.506;18.936;2022-10-17T13:34:04;99793.48;;;30.12;23.92
61361;BME280;47232;47.506;18.936;2022-10-17T13:36:32;99794.18;;;30.40;23.37
61361;BME280;47232;47.506;18.936;2022-10-17T13:39:04;99791.54;;;30.72;23.20
61361;BME280;47232;47.506;18.936;2022-10-17T13:41:31;99787.65;;;31.13;22.86
61361;BME280;47232;47.506;18.936;2022-10-17T13:44:00;99784.85;;;31.44;22.21
61361;BME280;47232;47.506;18.936;2022-10-17T13:46:32;99788.84;;;31.74;22.09
61361;BME280;47232;47.506;18.936;2022-10-17T13:48:59;99785.70;;;31.96;21.79
61361;BME280;47232;47.506;18.936;2022-10-17T13:51:33;99788.56;;;32.18;20.87
61361;BME280;47232;47.506;18.936;2022-10-17T13:53:59;99785.64;;;32.33;20.70
61361;BME280;47232;47.506;18.936;2022-10-17T13:56:26;99784.38;;;32.47;20.60
61361;BME280;47232;47.506;18.936;2022-10-17T13:59:00;99781.62;;;32.68;20.33
61361;BME280;47232;47.506;18.936;2022-10-17T14:01:28;99781.10;;;32.90;19.87
61361;BME280;47232;47.506;18.936;2022-10-17T14:03:54;99781.45;;;33.06;20.27
61361;BME280;47232;47.506;18.936;2022-10-17T14:06:23;99778.37;;;33.33;20.08
61361;BME280;47232;47.506;18.936;2022-10-17T14:09:02;99778.05;;;33.82;20.01
61361;BME280;47232;47.506;18.936;2022-10-17T14:13:55;99782.66;;;34.78;18.77
61361;BME280;47232;47.506;18.936;2022-10-17T14:16:23;99776.82;;;34.87;18.79
61361;BME280;47232;47.506;18.936;2022-10-17T14:18:51;99776.16;;;35.12;18.60
61361;BME280;47232;47.506;18.936;2022-10-17T14:21:23;99775.11;;;35.35;17.95
61361;BME280;47232;47.506;18.936;2022-10-17T14:23:50;99772.39;;;35.63;17.52
61361;BME280;47232;47.506;18.936;2022-10-17T14:26:22;99774.71;;;36.03;17.21
61361;BME280;47232;47.506;18.936;2022-10-17T14:29:02;99770.58;;;36.57;17.05
61361;BME280;47232;47.506;18.936;2022-10-17T14:31:33;99773.58;;;36.98;16.62
61361;BME280;47232;47.506;18.936;2022-10-17T14:34:00;99771.77;;;37.15;16.27
61361;BME280;47232;47.506;18.936;2022-10-17T14:36:34;99773.31;;;37.55;15.78
61361;BME280;47232;47.506;18.936;2022-10-17T14:39:00;99771.71;;;38.11;15.55
61361;BME280;47232;47.506;18.936;2022-10-17T14:41:29;99772.81;;;38.51;14.86
61361;BME280;47232;47.506;18.936;2022-10-17T14:44:06;99776.57;;;38.97;14.70
61361;BME280;47232;47.506;18.936;2022-10-17T14:46:43;99778.05;;;39.52;14.42
61361;BME280;47232;47.506;18.936;2022-10-17T14:49:18;99774.77;;;39.93;13.93
61361;BME280;47232;47.506;18.936;2022-10-17T14:54:39;99774.41;;;40.35;13.80
61361;BME280;47232;47.506;18.936;2022-10-17T14:57:13;99770.23;;;40.55;13.79
61361;BME280;47232;47.506;18.936;2022-10-17T14:59:39;99768.45;;;40.75;13.25
61361;BME280;47232;47.506;18.936;2022-10-17T15:02:05;99768.08;;;40.77;13.60
61361;BME280;47232;47.506;18.936;2022-10-17T15:04:30;99771.68;;;40.62;13.77
61361;BME280;47232;47.506;18.936;2022-10-17T15:06:56;99771.35;;;40.61;13.63
61361;BME280;47232;47.506;18.936;2022-10-17T15:09:21;99774.86;;;40.67;13.45
61361;BME280;47232;47.506;18.936;2022-10-17T15:11:48;99775.38;;;40.53;13.46
61361;BME280;47232;47.506;18.936;2022-10-17T15:14:13;99772.40;;;40.19;13.59